Time,TemperatureF,DewpointF,PressureIn,WindDirection,WindDirectionDegrees,WindSpeedMPH,WindSpeedGustMPH,Humidity,HourlyPrecipIn,Conditions,Clouds,dailyrainin,SoftwareType,DateUTC
2013-03-30 00:01:00,52.6,49.4,30.18,North,0,0.0,0.0,89,0.00,,,0.00,WUHU216HW,2013-03-30 07:01:00,
2013-03-30 00:06:00,52.6,49.4,30.18,North,0,0.0,0.0,89,0.00,,,0.00,WUHU216HW,2013-03-30 07:06:00,
2013-03-30 00:11:00,52.4,49.2,30.18,North,0,0.0,0.0,89,0.00,,,0.00,WUHU216HW,2013-03-30 07:11:00,
2013-03-30 00:16:00,52.4,49.2,30.18,North,0,0.0,0.0,89,0.00,,,0.00,WUHU216HW,2013-03-30 07:16:00,
2013-03-30 00:21:00,52.4,49.2,30.18,North,0,0.0,0.0,89,0.00,,,0.00,WUHU216HW,2013-03-30 07:21:00,
2013-03-30 00:26:00,52.4,49.2,30.18,North,0,0.0,0.0,89,0.00,,,0.00,WUHU216HW,2013-03-30 07:26:00,
2013-03-30 00:31:00,52.4,49.2,30.18,North,0,0.0,0.0,89,0.00,,,0.00,WUHU216HW,2013-03-30 07:31:00,
2013-03-30 00:36:00,52.2,49.1,30.18,North,0,0.0,0.0,89,0.00,,,0.00,WUHU216HW,2013-03-30 07:36:00,
2013-03-30 00:41:00,52.4,49.2,30.18,North,0,0.0,0.0,89,0.00,,,0.00,WUHU216HW,2013-03-30 07:41:00,
2013-03-30 00:46:00,52.4,49.2,30.18,North,0,0.0,0.0,89,0.00,,,0.00,WUHU216HW,2013-03-30 07:46:00,
2013-03-30 00:51:00,52.4,49.2,30.18,North,0,0.0,0.0,89,0.00,,,0.00,WUHU216HW,2013-03-30 07:51:00,
2013-03-30 00:56:00,52.4,49.2,30.18,North,0,0.0,0.0,89,0.00,,,0.00,WUHU216HW,2013-03-30 07:56:00,
2013-03-30 01:01:00,52.4,49.2,30.18,North,0,0.0,0.0,89,0.00,,,0.00,WUHU216HW,2013-03-30 08:01:00,
2013-03-30 01:07:00,52.4,49.2,30.18,North,0,0.0,0.0,89,0.00,,,0.00,WUHU216HW,2013-03-30 08:07:00,
2013-03-30 01:12:00,52.4,49.2,30.18,North,0,0.0,0.0,89,0.00,,,0.00,WUHU216HW,2013-03-30 08:12:00,
2013-03-30 01:17:00,52.4,49.2,30.18,North,0,0.0,0.0,89,0.00,,,0.00,WUHU216HW,2013-03-30 08:17:00,
2013-03-30 01:22:00,52.2,49.3,30.18,North,0,0.0,0.0,90,0.00,,,0.00,WUHU216HW,2013-03-30 08:22:00,
2013-03-30 01:27:00,52.2,49.3,30.18,North,0,0.0,0.0,90,0.00,,,0.00,WUHU216HW,2013-03-30 08:27:00,
2013-03-30 01:32:00,52.2,49.3,30.17,North,0,0.0,0.0,90,0.00,,,0.00,WUHU216HW,2013-03-30 08:32:00,
2013-03-30 01:37:00,52.2,49.3,30.17,North,0,0.0,0.0,90,0.00,,,0.00,WUHU216HW,2013-03-30 08:37:00,
2013-03-30 01:42:00,52.2,49.3,30.17,North,0,0.0,0.0,90,0.00,,,0.00,WUHU216HW,2013-03-30 08:42:00,
2013-03-30 01:47:00,52.2,49.3,30.17,North,0,0.0,0.0,90,0.00,,,0.00,WUHU216HW,2013-03-30 08:47:00,
2013-03-30 01:52:00,52.2,49.3,30.17,North,0,0.0,0.0,90,0.00,,,0.00,WUHU216HW,2013-03-30 08:52:00,
2013-03-30 01:57:00,52.2,49.3,30.17,North,0,0.0,0.0,90,0.00,,,0.00,WUHU216HW,2013-03-30 08:57:00,
2013-03-30 02:02:00,52.0,49.1,30.17,North,0,0.0,0.0,90,0.00,,,0.00,WUHU216HW,2013-03-30 09:02:00,
2013-03-30 02:07:00,52.0,49.1,30.17,North,0,0.0,0.0,90,0.00,,,0.00,WUHU216HW,2013-03-30 09:07:00,
2013-03-30 02:12:00,52.0,49.1,30.16,North,0,0.0,0.0,90,0.00,,,0.00,WUHU216HW,2013-03-30 09:12:00,
2013-03-30 02:17:00,51.8,49.0,30.16,North,0,0.0,0.0,90,0.00,,,0.00,WUHU216HW,2013-03-30 09:17:00,
2013-03-30 02:22:00,51.8,49.2,30.16,North,0,0.0,0.0,91,0.00,,,0.00,WUHU216HW,2013-03-30 09:22:00,
2013-03-30 02:27:00,51.8,49.2,30.16,North,0,0.0,0.0,91,0.00,,,0.00,WUHU216HW,2013-03-30 09:27:00,
2013-03-30 02:32:00,51.8,49.2,30.17,North,0,0.0,0.0,91,0.00,,,0.00,WUHU216HW,2013-03-30 09:32:00,
2013-03-30 02:37:00,51.8,49.0,30.17,North,0,0.0,0.0,90,0.00,,,0.00,WUHU216HW,2013-03-30 09:37:00,
2013-03-30 02:42:00,51.7,48.8,30.17,North,0,0.0,0.0,90,0.00,,,0.00,WUHU216HW,2013-03-30 09:42:00,
2013-03-30 02:47:00,51.7,48.8,30.17,North,0,0.0,0.0,90,0.00,,,0.00,WUHU216HW,2013-03-30 09:47:00,
2013-03-30 02:52:00,51.7,48.8,30.16,North,0,0.0,0.0,90,0.00,,,0.00,WUHU216HW,2013-03-30 09:52:00,
2013-03-30 02:57:00,51.7,48.8,30.17,North,0,0.0,0.0,90,0.00,,,0.00,WUHU216HW,2013-03-30 09:57:00,
2013-03-30 03:02:00,51.5,48.6,30.17,North,0,0.0,0.0,90,0.00,,,0.00,WUHU216HW,2013-03-30 10:02:00,
2013-03-30 03:07:00,51.5,48.6,30.17,North,0,0.0,0.0,90,0.00,,,0.00,WUHU216HW,2013-03-30 10:07:00,
2013-03-30 03:12:00,51.5,48.9,30.17,North,0,0.0,0.0,91,0.00,,,0.00,WUHU216HW,2013-03-30 10:12:00,
2013-03-30 03:17:00,51.5,48.9,30.17,North,0,0.0,0.0,91,0.00,,,0.00,WUHU216HW,2013-03-30 10:17:00,
2013-03-30 03:22:00,51.5,48.9,30.17,North,0,0.0,0.0,91,0.00,,,0.00,WUHU216HW,2013-03-30 10:22:00,
2013-03-30 03:27:00,51.5,48.9,30.17,North,0,0.0,0.0,91,0.00,,,0.00,WUHU216HW,2013-03-30 10:27:00,
2013-03-30 03:32:00,51.5,48.9,30.17,North,0,0.0,0.0,91,0.00,,,0.00,WUHU216HW,2013-03-30 10:32:00,
2013-03-30 03:37:00,51.3,48.7,30.17,North,0,0.0,0.0,91,0.00,,,0.00,WUHU216HW,2013-03-30 10:37:00,
2013-03-30 03:42:00,51.3,48.7,30.17,North,0,0.0,0.0,91,0.00,,,0.00,WUHU216HW,2013-03-30 10:42:00,
2013-03-30 03:47:00,51.3,48.7,30.16,North,0,0.0,0.0,91,0.00,,,0.00,WUHU216HW,2013-03-30 10:47:00,
2013-03-30 03:52:00,51.1,48.5,30.17,North,0,0.0,0.0,91,0.00,,,0.00,WUHU216HW,2013-03-30 10:52:00,
2013-03-30 03:57:00,51.1,48.5,30.16,North,0,0.0,0.0,91,0.00,,,0.00,WUHU216HW,2013-03-30 10:57:00,
2013-03-30 04:02:00,51.1,48.5,30.16,North,0,0.0,0.0,91,0.00,,,0.00,WUHU216HW,2013-03-30 11:02:00,
2013-03-30 04:07:00,51.1,48.5,30.15,North,0,0.0,0.0,91,0.00,,,0.00,WUHU216HW,2013-03-30 11:07:00,
2013-03-30 04:12:00,51.1,48.5,30.15,North,0,0.0,0.0,91,0.00,,,0.00,WUHU216HW,2013-03-30 11:12:00,
2013-03-30 04:17:00,51.1,48.5,30.15,North,0,0.0,0.0,91,0.00,,,0.00,WUHU216HW,2013-03-30 11:17:00,
2013-03-30 04:22:00,51.1,48.5,30.15,North,0,0.0,0.0,91,0.00,,,0.00,WUHU216HW,2013-03-30 11:22:00,
2013-03-30 04:27:00,51.1,48.5,30.15,North,0,0.0,0.0,91,0.00,,,0.00,WUHU216HW,2013-03-30 11:27:00,
2013-03-30 04:32:00,51.1,48.5,30.15,North,0,0.0,0.0,91,0.00,,,0.00,WUHU216HW,2013-03-30 11:32:00,
2013-03-30 04:37:00,51.1,48.5,30.14,North,0,0.0,0.0,91,0.00,,,0.00,WUHU216HW,2013-03-30 11:37:00,
2013-03-30 04:42:00,51.1,48.5,30.14,North,0,0.0,0.0,91,0.00,,,0.00,WUHU216HW,2013-03-30 11:42:00,
2013-03-30 04:47:00,51.1,48.5,30.14,North,0,0.0,0.0,91,0.00,,,0.00,WUHU216HW,2013-03-30 11:47:00,
2013-03-30 04:52:00,51.1,48.5,30.14,North,0,0.0,0.0,91,0.00,,,0.00,WUHU216HW,2013-03-30 11:52:00,
2013-03-30 04:57:00,51.1,48.5,30.15,North,0,0.0,0.0,91,0.00,,,0.00,WUHU216HW,2013-03-30 11:57:00,
2013-03-30 05:02:00,51.1,48.5,30.14,North,0,0.0,0.0,91,0.00,,,0.00,WUHU216HW,2013-03-30 12:02:00,
2013-03-30 05:07:00,51.1,48.5,30.14,North,0,0.0,0.0,91,0.00,,,0.00,WUHU216HW,2013-03-30 12:07:00,
2013-03-30 05:12:00,51.1,48.5,30.14,North,0,0.0,0.0,91,0.00,,,0.00,WUHU216HW,2013-03-30 12:12:00,
2013-03-30 05:17:00,51.1,48.5,30.14,North,0,0.0,0.0,91,0.00,,,0.00,WUHU216HW,2013-03-30 12:17:00,
2013-03-30 05:22:00,51.1,48.5,30.14,North,0,0.0,0.0,91,0.00,,,0.00,WUHU216HW,2013-03-30 12:22:00,
2013-03-30 05:27:00,51.1,48.5,30.14,North,0,0.0,0.0,91,0.00,,,0.00,WUHU216HW,2013-03-30 12:27:00,
2013-03-30 05:32:00,51.1,48.5,30.14,North,0,0.0,0.0,91,0.00,,,0.00,WUHU216HW,2013-03-30 12:32:00,
2013-03-30 05:37:00,51.1,48.5,30.15,North,0,0.0,0.0,91,0.00,,,0.00,WUHU216HW,2013-03-30 12:37:00,
2013-03-30 05:42:00,51.1,48.5,30.15,North,0,0.0,0.0,91,0.00,,,0.00,WUHU216HW,2013-03-30 12:42:00,
2013-03-30 05:47:00,51.1,48.5,30.15,North,0,0.0,0.0,91,0.00,,,0.00,WUHU216HW,2013-03-30 12:47:00,
2013-03-30 05:52:00,51.1,48.5,30.15,North,0,0.0,0.0,91,0.00,,,0.00,WUHU216HW,2013-03-30 12:52:00,
2013-03-30 05:57:00,51.1,48.5,30.15,North,0,0.0,0.0,91,0.00,,,0.00,WUHU216HW,2013-03-30 12:57:00,
2013-03-30 06:02:00,51.1,48.5,30.15,North,0,0.0,0.0,91,0.00,,,0.00,WUHU216HW,2013-03-30 13:02:00,
2013-03-30 06:07:00,51.1,48.5,30.15,North,0,0.0,0.0,91,0.00,,,0.00,WUHU216HW,2013-03-30 13:07:00,
2013-03-30 06:12:00,50.9,48.3,30.15,North,0,0.0,0.0,91,0.00,,,0.00,WUHU216HW,2013-03-30 13:12:00,
2013-03-30 06:18:00,50.9,48.3,30.15,North,0,0.0,0.0,91,0.00,,,0.00,WUHU216HW,2013-03-30 13:18:00,
2013-03-30 06:23:00,50.9,48.3,30.15,North,0,0.0,0.0,91,0.00,,,0.00,WUHU216HW,2013-03-30 13:23:00,
2013-03-30 06:28:00,50.9,48.3,30.15,North,0,0.0,0.0,91,0.00,,,0.00,WUHU216HW,2013-03-30 13:28:00,
2013-03-30 06:33:00,50.9,48.3,30.15,North,0,0.0,0.0,91,0.00,,,0.00,WUHU216HW,2013-03-30 13:33:00,
2013-03-30 06:38:00,50.8,48.2,30.16,North,0,0.0,0.0,91,0.00,,,0.00,WUHU216HW,2013-03-30 13:38:00,
2013-03-30 06:43:00,50.8,48.2,30.16,North,0,0.0,0.0,91,0.00,,,0.00,WUHU216HW,2013-03-30 13:43:00,
2013-03-30 06:48:00,50.8,48.2,30.16,North,0,0.0,0.0,91,0.00,,,0.00,WUHU216HW,2013-03-30 13:48:00,
2013-03-30 06:53:00,50.8,48.2,30.16,North,0,0.0,0.0,91,0.00,,,0.00,WUHU216HW,2013-03-30 13:53:00,
2013-03-30 06:58:00,50.8,48.2,30.16,North,0,0.0,0.0,91,0.00,,,0.00,WUHU216HW,2013-03-30 13:58:00,
2013-03-30 07:03:00,50.8,48.2,30.16,North,0,0.0,0.0,91,0.00,,,0.00,WUHU216HW,2013-03-30 14:03:00,
2013-03-30 07:08:00,50.8,48.2,30.16,North,0,0.0,0.0,91,0.00,,,0.00,WUHU216HW,2013-03-30 14:08:00,
2013-03-30 07:13:00,50.8,48.2,30.17,North,0,0.0,0.0,91,0.00,,,0.00,WUHU216HW,2013-03-30 14:13:00,
2013-03-30 07:18:00,50.8,48.2,30.17,North,0,0.0,0.0,91,0.00,,,0.00,WUHU216HW,2013-03-30 14:18:00,
2013-03-30 07:23:00,50.8,48.2,30.17,North,0,0.0,0.0,91,0.00,,,0.00,WUHU216HW,2013-03-30 14:23:00,
2013-03-30 07:28:00,50.9,48.3,30.17,North,0,0.0,0.0,91,0.00,,,0.00,WUHU216HW,2013-03-30 14:28:00,
2013-03-30 07:33:00,50.9,48.3,30.17,North,0,0.0,0.0,91,0.00,,,0.00,WUHU216HW,2013-03-30 14:33:00,
2013-03-30 07:38:00,50.9,48.3,30.17,North,0,0.0,0.0,91,0.00,,,0.00,WUHU216HW,2013-03-30 14:38:00,
2013-03-30 07:43:00,50.9,48.3,30.18,North,0,0.0,0.0,91,0.00,,,0.00,WUHU216HW,2013-03-30 14:43:00,
2013-03-30 07:48:00,50.9,48.3,30.18,North,0,0.0,0.0,91,0.00,,,0.00,WUHU216HW,2013-03-30 14:48:00,
2013-03-30 07:53:00,50.9,48.6,30.18,North,0,0.0,0.0,92,0.00,,,0.00,WUHU216HW,2013-03-30 14:53:00,
2013-03-30 07:58:00,51.1,48.5,30.18,North,0,0.0,0.0,91,0.00,,,0.00,WUHU216HW,2013-03-30 14:58:00,
2013-03-30 08:03:00,51.1,48.5,30.18,North,0,0.0,0.0,91,0.00,,,0.00,WUHU216HW,2013-03-30 15:03:00,
2013-03-30 08:08:00,51.1,48.8,30.18,North,0,0.0,0.0,92,0.00,,,0.00,WUHU216HW,2013-03-30 15:08:00,
2013-03-30 08:13:00,51.3,49.0,30.18,North,0,0.0,0.0,92,0.00,,,0.00,WUHU216HW,2013-03-30 15:13:00,
2013-03-30 08:18:00,51.3,49.0,30.18,North,0,0.0,0.0,92,0.00,,,0.00,WUHU216HW,2013-03-30 15:18:00,
2013-03-30 08:23:00,51.5,49.1,30.19,North,0,0.0,0.0,92,0.00,,,0.00,WUHU216HW,2013-03-30 15:23:00,
2013-03-30 08:28:00,51.3,49.0,30.18,North,0,0.0,0.0,92,0.00,,,0.00,WUHU216HW,2013-03-30 15:28:00,
2013-03-30 08:33:00,51.3,49.0,30.19,North,0,0.0,0.0,92,0.00,,,0.00,WUHU216HW,2013-03-30 15:33:00,
2013-03-30 08:38:00,51.5,49.1,30.19,North,0,0.0,0.0,92,0.00,,,0.00,WUHU216HW,2013-03-30 15:38:00,
2013-03-30 08:43:00,51.5,49.1,30.19,North,0,0.0,0.0,92,0.00,,,0.00,WUHU216HW,2013-03-30 15:43:00,
2013-03-30 08:48:00,51.5,49.1,30.19,North,0,0.0,0.0,92,0.00,,,0.00,WUHU216HW,2013-03-30 15:48:00,
2013-03-30 08:53:00,51.7,49.3,30.19,North,0,0.0,0.0,92,0.00,,,0.00,WUHU216HW,2013-03-30 15:53:00,
2013-03-30 08:58:00,51.7,49.3,30.19,North,0,0.0,0.0,92,0.00,,,0.00,WUHU216HW,2013-03-30 15:58:00,
2013-03-30 09:03:00,51.8,49.5,30.19,North,0,0.0,0.0,92,0.00,,,0.00,WUHU216HW,2013-03-30 16:03:00,
2013-03-30 09:08:00,51.8,49.5,30.19,North,0,0.0,0.0,92,0.00,,,0.00,WUHU216HW,2013-03-30 16:08:00,
2013-03-30 09:13:00,51.8,49.5,30.19,North,0,0.0,0.0,92,0.00,,,0.00,WUHU216HW,2013-03-30 16:13:00,
2013-03-30 09:18:00,51.8,49.5,30.19,North,0,0.0,0.0,92,0.00,,,0.00,WUHU216HW,2013-03-30 16:18:00,
2013-03-30 09:23:00,52.0,50.1,30.19,North,0,0.0,0.0,93,0.00,,,0.00,WUHU216HW,2013-03-30 16:23:00,
2013-03-30 09:28:00,52.0,50.1,30.19,North,0,0.0,0.0,93,0.00,,,0.00,WUHU216HW,2013-03-30 16:28:00,
2013-03-30 09:33:00,52.6,50.2,30.19,North,0,0.0,0.0,92,0.00,,,0.00,WUHU216HW,2013-03-30 16:33:00,
2013-03-30 09:38:00,53.3,51.3,30.19,North,0,0.0,0.0,93,0.00,,,0.00,WUHU216HW,2013-03-30 16:38:00,
2013-03-30 09:43:00,53.6,51.7,30.19,North,0,0.0,0.0,93,0.00,,,0.00,WUHU216HW,2013-03-30 16:43:00,
2013-03-30 09:48:00,54.0,52.0,30.19,North,0,0.0,0.0,93,0.00,,,0.00,WUHU216HW,2013-03-30 16:48:00,
2013-03-30 09:53:00,54.4,52.0,30.19,North,0,0.0,0.0,92,0.00,,,0.00,WUHU216HW,2013-03-30 16:53:00,
2013-03-30 09:58:00,54.7,52.4,30.19,North,0,0.0,0.0,92,0.00,,,0.00,WUHU216HW,2013-03-30 16:58:00,
2013-03-30 10:03:00,54.9,52.3,30.19,North,0,0.0,0.0,91,0.00,,,0.00,WUHU216HW,2013-03-30 17:03:00,
2013-03-30 10:08:00,55.1,52.5,30.19,North,0,0.0,0.0,91,0.00,,,0.00,WUHU216HW,2013-03-30 17:08:00,
2013-03-30 10:13:00,55.4,52.6,30.19,North,0,0.0,0.0,90,0.00,,,0.00,WUHU216HW,2013-03-30 17:13:00,
2013-03-30 10:18:00,55.6,52.4,30.19,North,0,0.0,0.0,89,0.00,,,0.00,WUHU216HW,2013-03-30 17:18:00,
2013-03-30 10:23:00,56.2,52.7,30.19,North,0,0.0,0.0,88,0.00,,,0.00,WUHU216HW,2013-03-30 17:23:00,
2013-03-30 10:28:00,56.5,52.7,30.19,North,0,0.0,0.0,87,0.00,,,0.00,WUHU216HW,2013-03-30 17:28:00,
2013-03-30 10:33:00,56.9,52.8,30.19,North,0,0.0,0.0,86,0.00,,,0.00,WUHU216HW,2013-03-30 17:33:00,
2013-03-30 10:38:00,57.1,52.9,30.19,North,0,0.0,0.0,86,0.00,,,0.00,WUHU216HW,2013-03-30 17:38:00,
2013-03-30 10:43:00,57.2,53.1,30.19,North,0,0.0,0.0,86,0.00,,,0.00,WUHU216HW,2013-03-30 17:43:00,
2013-03-30 10:48:00,57.6,53.5,30.19,North,0,0.0,0.0,86,0.00,,,0.00,WUHU216HW,2013-03-30 17:48:00,
2013-03-30 10:53:00,58.0,53.5,30.18,North,0,0.0,0.0,85,0.00,,,0.00,WUHU216HW,2013-03-30 17:53:00,
2013-03-30 10:58:00,58.5,53.4,30.19,North,0,0.0,0.0,83,0.00,,,0.00,WUHU216HW,2013-03-30 17:58:00,
2013-03-30 11:03:00,58.9,54.0,30.18,North,0,0.0,0.0,84,0.00,,,0.00,WUHU216HW,2013-03-30 18:03:00,
2013-03-30 11:08:00,59.6,54.1,30.19,North,0,0.0,0.0,82,0.00,,,0.00,WUHU216HW,2013-03-30 18:08:00,
2013-03-30 11:13:00,60.1,54.0,30.18,North,0,0.0,0.0,80,0.00,,,0.00,WUHU216HW,2013-03-30 18:13:00,
2013-03-30 11:18:00,61.2,55.4,30.19,North,0,0.0,0.0,81,0.00,,,0.00,WUHU216HW,2013-03-30 18:18:00,
2013-03-30 11:23:00,61.7,55.5,30.19,North,0,0.0,0.0,80,0.00,,,0.00,WUHU216HW,2013-03-30 18:23:00,
2013-03-30 11:28:00,62.8,56.2,30.19,North,0,0.0,0.0,79,0.00,,,0.00,WUHU216HW,2013-03-30 18:28:00,
2013-03-30 11:34:00,64.4,57.4,30.19,North,0,0.0,0.0,78,0.00,,,0.00,WUHU216HW,2013-03-30 18:34:00,
2013-03-30 11:39:00,66.1,56.8,30.18,North,0,0.0,0.0,72,0.00,,,0.00,WUHU216HW,2013-03-30 18:39:00,
2013-03-30 11:44:00,67.1,55.4,30.18,North,0,0.0,0.0,66,0.00,,,0.00,WUHU216HW,2013-03-30 18:44:00,
2013-03-30 11:49:00,67.0,56.1,30.18,North,0,0.0,0.0,68,0.00,,,0.00,WUHU216HW,2013-03-30 18:49:00,
2013-03-30 11:54:00,67.5,57.4,30.18,North,0,0.0,0.0,70,0.00,,,0.00,WUHU216HW,2013-03-30 18:54:00,
2013-03-30 11:59:00,67.9,57.3,30.18,North,0,0.0,0.0,69,0.00,,,0.00,WUHU216HW,2013-03-30 18:59:00,
2013-03-30 12:04:00,67.9,54.8,30.18,North,0,0.0,0.0,63,0.00,,,0.00,WUHU216HW,2013-03-30 19:04:00,
2013-03-30 12:09:00,66.8,54.6,30.18,North,0,0.0,0.0,65,0.00,,,0.00,WUHU216HW,2013-03-30 19:09:00,
2013-03-30 12:14:00,66.2,54.6,30.18,North,0,0.0,0.0,66,0.00,,,0.00,WUHU216HW,2013-03-30 19:14:00,
2013-03-30 12:19:00,65.7,54.5,30.18,North,0,0.0,0.0,67,0.00,,,0.00,WUHU216HW,2013-03-30 19:19:00,
2013-03-30 12:24:00,66.4,55.9,30.18,North,0,0.0,0.0,69,0.00,,,0.00,WUHU216HW,2013-03-30 19:24:00,
2013-03-30 12:29:00,67.1,55.8,30.18,North,0,0.0,0.0,67,0.00,,,0.00,WUHU216HW,2013-03-30 19:29:00,
2013-03-30 12:34:00,67.1,54.9,30.18,North,0,0.0,0.0,65,0.00,,,0.00,WUHU216HW,2013-03-30 19:34:00,
2013-03-30 12:39:00,66.8,55.4,30.18,North,0,0.0,0.0,67,0.00,,,0.00,WUHU216HW,2013-03-30 19:39:00,
2013-03-30 12:44:00,66.2,54.6,30.17,North,0,0.0,0.0,66,0.00,,,0.00,WUHU216HW,2013-03-30 19:44:00,
2013-03-30 12:49:00,66.1,54.7,30.17,North,0,0.0,0.0,67,0.00,,,0.00,WUHU216HW,2013-03-30 19:49:00,
2013-03-30 12:54:00,66.1,54.7,30.17,North,0,0.0,0.0,67,0.00,,,0.00,WUHU216HW,2013-03-30 19:54:00,
2013-03-30 12:59:00,65.9,54.5,30.17,North,0,0.0,0.0,67,0.00,,,0.00,WUHU216HW,2013-03-30 19:59:00,
2013-03-30 13:04:00,66.1,54.7,30.18,North,0,0.0,0.0,67,0.00,,,0.00,WUHU216HW,2013-03-30 20:04:00,
2013-03-30 13:09:00,66.2,54.1,30.17,North,0,0.0,0.0,65,0.00,,,0.00,WUHU216HW,2013-03-30 20:09:00,
2013-03-30 13:14:00,66.8,54.2,30.17,North,0,0.0,0.0,64,0.00,,,0.00,WUHU216HW,2013-03-30 20:14:00,
2013-03-30 13:19:00,67.0,53.9,30.17,North,0,0.0,0.0,63,0.00,,,0.00,WUHU216HW,2013-03-30 20:19:00,
2013-03-30 13:24:00,67.3,52.5,30.16,North,0,0.0,0.0,59,0.00,,,0.00,WUHU216HW,2013-03-30 20:24:00,
2013-03-30 13:29:00,67.0,52.7,30.16,North,0,0.0,0.0,60,0.00,,,0.00,WUHU216HW,2013-03-30 20:29:00,
2013-03-30 13:34:00,67.0,53.6,30.16,North,0,0.0,0.0,62,0.00,,,0.00,WUHU216HW,2013-03-30 20:34:00,
2013-03-30 13:39:00,67.7,54.2,30.16,North,0,0.0,0.0,62,0.00,,,0.00,WUHU216HW,2013-03-30 20:39:00,
2013-03-30 13:44:00,67.7,52.8,30.16,North,0,0.0,0.0,59,0.00,,,0.00,WUHU216HW,2013-03-30 20:44:00,
2013-03-30 13:49:00,67.7,52.8,30.17,North,0,0.0,0.0,59,0.00,,,0.00,WUHU216HW,2013-03-30 20:49:00,
2013-03-30 13:54:00,67.9,53.0,30.17,North,0,0.0,0.0,59,0.00,,,0.00,WUHU216HW,2013-03-30 20:54:00,
2013-03-30 13:59:00,67.9,53.0,30.17,North,0,0.0,0.0,59,0.00,,,0.00,WUHU216HW,2013-03-30 20:59:00,
2013-03-30 14:04:00,68.0,53.2,30.17,North,0,0.0,0.0,59,0.00,,,0.00,WUHU216HW,2013-03-30 21:04:00,
2013-03-30 14:09:00,67.9,53.0,30.16,North,0,0.0,0.0,59,0.00,,,0.00,WUHU216HW,2013-03-30 21:09:00,
2013-03-30 14:14:00,67.9,53.5,30.16,North,0,0.0,0.0,60,0.00,,,0.00,WUHU216HW,2013-03-30 21:14:00,
2013-03-30 14:19:00,68.0,52.7,30.16,North,0,0.0,0.0,58,0.00,,,0.00,WUHU216HW,2013-03-30 21:19:00,
2013-03-30 14:24:00,67.7,51.8,30.16,North,0,0.0,0.0,57,0.00,,,0.00,WUHU216HW,2013-03-30 21:24:00,
2013-03-30 14:29:00,67.3,52.5,30.17,North,0,0.0,0.0,59,0.00,,,0.00,WUHU216HW,2013-03-30 21:29:00,
2013-03-30 14:34:00,66.8,52.5,30.16,North,0,0.0,0.0,60,0.00,,,0.00,WUHU216HW,2013-03-30 21:34:00,
2013-03-30 14:39:00,66.6,52.7,30.16,North,0,0.0,0.0,61,0.00,,,0.00,WUHU216HW,2013-03-30 21:39:00,
2013-03-30 14:44:00,66.8,52.9,30.16,North,0,0.0,0.0,61,0.00,,,0.00,WUHU216HW,2013-03-30 21:44:00,
2013-03-30 14:49:00,67.0,53.1,30.16,North,0,0.0,0.0,61,0.00,,,0.00,WUHU216HW,2013-03-30 21:49:00,
2013-03-30 14:54:00,67.1,53.3,30.15,North,0,0.0,0.0,61,0.00,,,0.00,WUHU216HW,2013-03-30 21:54:00,
2013-03-30 14:59:00,66.8,52.9,30.15,North,0,0.0,0.0,61,0.00,,,0.00,WUHU216HW,2013-03-30 21:59:00,
2013-03-30 15:04:00,66.8,52.9,30.15,North,0,0.0,0.0,61,0.00,,,0.00,WUHU216HW,2013-03-30 22:04:00,
2013-03-30 15:09:00,66.6,53.2,30.15,North,0,0.0,0.0,62,0.00,,,0.00,WUHU216HW,2013-03-30 22:09:00,
2013-03-30 15:14:00,66.6,53.2,30.15,North,0,0.0,0.0,62,0.00,,,0.00,WUHU216HW,2013-03-30 22:14:00,
2013-03-30 15:19:00,66.4,53.0,30.14,North,0,0.0,0.0,62,0.00,,,0.00,WUHU216HW,2013-03-30 22:19:00,
2013-03-30 15:24:00,66.1,52.7,30.14,North,0,0.0,0.0,62,0.00,,,0.00,WUHU216HW,2013-03-30 22:24:00,
2013-03-30 15:29:00,65.9,52.9,30.14,North,0,0.0,0.0,63,0.00,,,0.00,WUHU216HW,2013-03-30 22:29:00,
2013-03-30 15:34:00,65.7,52.8,30.14,North,0,0.0,0.0,63,0.00,,,0.00,WUHU216HW,2013-03-30 22:34:00,
2013-03-30 15:39:00,65.2,52.7,30.14,North,0,0.0,0.0,64,0.00,,,0.00,WUHU216HW,2013-03-30 22:39:00,
2013-03-30 15:44:00,65.2,52.7,30.13,North,0,0.0,0.0,64,0.00,,,0.00,WUHU216HW,2013-03-30 22:44:00,
2013-03-30 15:49:00,65.0,52.5,30.13,North,0,0.0,0.0,64,0.00,,,0.00,WUHU216HW,2013-03-30 22:49:00,
2013-03-30 15:54:00,64.8,52.8,30.13,North,0,0.0,0.0,65,0.00,,,0.00,WUHU216HW,2013-03-30 22:54:00,
2013-03-30 15:59:00,64.6,52.6,30.13,North,0,0.0,0.0,65,0.00,,,0.00,WUHU216HW,2013-03-30 22:59:00,
2013-03-30 16:04:00,64.1,52.0,30.13,North,0,0.0,0.0,65,0.00,,,0.00,WUHU216HW,2013-03-30 23:04:00,
2013-03-30 16:09:00,64.1,52.5,30.13,North,0,0.0,0.0,66,0.00,,,0.00,WUHU216HW,2013-03-30 23:09:00,
2013-03-30 16:14:00,64.1,52.5,30.12,North,0,0.0,0.0,66,0.00,,,0.00,WUHU216HW,2013-03-30 23:14:00,
2013-03-30 16:19:00,63.9,52.3,30.12,North,0,0.0,0.0,66,0.00,,,0.00,WUHU216HW,2013-03-30 23:19:00,
2013-03-30 16:24:00,63.7,51.7,30.12,North,0,0.0,0.0,65,0.00,,,0.00,WUHU216HW,2013-03-30 23:24:00,
2013-03-30 16:29:00,63.4,51.4,30.12,North,0,0.0,0.0,65,0.00,,,0.00,WUHU216HW,2013-03-30 23:29:00,
2013-03-30 16:34:00,63.0,51.4,30.12,North,0,0.0,0.0,66,0.00,,,0.00,WUHU216HW,2013-03-30 23:34:00,
2013-03-30 16:39:00,62.8,51.3,30.13,North,0,0.0,0.0,66,0.00,,,0.00,WUHU216HW,2013-03-30 23:39:00,
2013-03-30 16:44:00,62.3,51.2,30.12,North,0,0.0,0.0,67,0.00,,,0.00,WUHU216HW,2013-03-30 23:44:00,
2013-03-30 16:49:00,61.7,51.1,30.11,North,0,0.0,0.0,68,0.00,,,0.00,WUHU216HW,2013-03-30 23:49:00,
2013-03-30 16:54:00,61.2,51.0,30.10,North,0,0.0,0.0,69,0.00,,,0.00,WUHU216HW,2013-03-30 23:54:00,
2013-03-30 16:59:00,61.2,51.0,30.11,North,0,0.0,0.0,69,0.00,,,0.00,WUHU216HW,2013-03-30 23:59:00,
2013-03-30 17:04:00,60.8,50.7,30.10,North,0,0.0,0.0,69,0.00,,,0.00,WUHU216HW,2013-03-31 00:04:00,
2013-03-30 17:09:00,60.7,50.9,30.09,North,0,0.0,0.0,70,0.00,,,0.00,WUHU216HW,2013-03-31 00:09:00,
2013-03-30 17:14:00,60.5,51.1,30.10,North,0,0.0,0.0,71,0.00,,,0.00,WUHU216HW,2013-03-31 00:14:00,
2013-03-30 17:19:00,60.5,51.5,30.11,North,0,0.0,0.0,72,0.00,,,0.00,WUHU216HW,2013-03-31 00:19:00,
2013-03-30 17:24:00,60.1,51.5,30.11,North,0,0.0,0.0,73,0.00,,,0.00,WUHU216HW,2013-03-31 00:24:00,
2013-03-30 17:29:00,59.9,51.3,30.12,North,0,0.0,0.0,73,0.00,,,0.00,WUHU216HW,2013-03-31 00:29:00,
2013-03-30 17:34:00,59.8,51.1,30.11,North,0,0.0,0.0,73,0.00,,,0.00,WUHU216HW,2013-03-31 00:34:00,
2013-03-30 17:39:00,59.9,51.3,30.11,North,0,0.0,0.0,73,0.00,,,0.00,WUHU216HW,2013-03-31 00:39:00,
2013-03-30 17:44:00,59.9,51.3,30.11,North,0,0.0,0.0,73,0.00,,,0.00,WUHU216HW,2013-03-31 00:44:00,
2013-03-30 17:49:00,59.9,51.3,30.11,North,0,0.0,0.0,73,0.00,,,0.00,WUHU216HW,2013-03-31 00:49:00,
2013-03-30 17:54:00,60.1,51.8,30.11,North,0,0.0,0.0,74,0.00,,,0.00,WUHU216HW,2013-03-31 00:54:00,
2013-03-30 17:59:00,59.9,51.7,30.12,North,0,0.0,0.0,74,0.00,,,0.00,WUHU216HW,2013-03-31 00:59:00,
2013-03-30 18:04:00,59.9,51.7,30.11,North,0,0.0,0.0,74,0.00,,,0.00,WUHU216HW,2013-03-31 01:04:00,
2013-03-30 18:09:00,59.8,51.5,30.11,North,0,0.0,0.0,74,0.00,,,0.00,WUHU216HW,2013-03-31 01:09:00,
2013-03-30 18:14:00,59.8,51.8,30.11,North,0,0.0,0.0,75,0.00,,,0.00,WUHU216HW,2013-03-31 01:14:00,
2013-03-30 18:19:00,59.4,51.1,30.11,North,0,0.0,0.0,74,0.00,,,0.00,WUHU216HW,2013-03-31 01:19:00,
2013-03-30 18:24:00,59.2,51.3,30.11,North,0,0.0,0.0,75,0.00,,,0.00,WUHU216HW,2013-03-31 01:24:00,
2013-03-30 18:29:00,59.0,51.1,30.11,North,0,0.0,0.0,75,0.00,,,0.00,WUHU216HW,2013-03-31 01:29:00,
2013-03-30 18:34:00,58.9,51.3,30.11,North,0,0.0,0.0,76,0.00,,,0.00,WUHU216HW,2013-03-31 01:34:00,
2013-03-30 18:39:00,58.7,51.1,30.11,North,0,0.0,0.0,76,0.00,,,0.00,WUHU216HW,2013-03-31 01:39:00,
2013-03-30 18:44:00,58.3,51.1,30.11,North,0,0.0,0.0,77,0.00,,,0.00,WUHU216HW,2013-03-31 01:44:00,
2013-03-30 18:49:00,58.1,50.9,30.11,North,0,0.0,0.0,77,0.00,,,0.00,WUHU216HW,2013-03-31 01:49:00,
2013-03-30 18:54:00,58.0,50.8,30.10,North,0,0.0,0.0,77,0.00,,,0.00,WUHU216HW,2013-03-31 01:54:00,
2013-03-30 18:59:00,57.8,50.9,30.10,North,0,0.0,0.0,78,0.00,,,0.00,WUHU216HW,2013-03-31 01:59:00,
2013-03-30 19:04:00,57.8,51.3,30.10,North,0,0.0,0.0,79,0.00,,,0.00,WUHU216HW,2013-03-31 02:04:00,
2013-03-30 19:09:00,57.6,51.1,30.10,North,0,0.0,0.0,79,0.00,,,0.00,WUHU216HW,2013-03-31 02:09:00,
2013-03-30 19:14:00,57.4,50.9,30.11,North,0,0.0,0.0,79,0.00,,,0.00,WUHU216HW,2013-03-31 02:14:00,
2013-03-30 19:19:00,57.2,50.8,30.11,North,0,0.0,0.0,79,0.00,,,0.00,WUHU216HW,2013-03-31 02:19:00,
2013-03-30 19:24:00,57.2,51.1,30.10,North,0,0.0,0.0,80,0.00,,,0.00,WUHU216HW,2013-03-31 02:24:00,
2013-03-30 19:29:00,57.2,51.1,30.11,North,0,0.0,0.0,80,0.00,,,0.00,WUHU216HW,2013-03-31 02:29:00,
2013-03-30 19:34:00,57.2,51.1,30.11,North,0,0.0,0.0,80,0.00,,,0.00,WUHU216HW,2013-03-31 02:34:00,
2013-03-30 19:39:00,57.2,51.1,30.11,North,0,0.0,0.0,80,0.00,,,0.00,WUHU216HW,2013-03-31 02:39:00,
2013-03-30 19:44:00,57.2,51.1,30.11,North,0,0.0,0.0,80,0.00,,,0.00,WUHU216HW,2013-03-31 02:44:00,
2013-03-30 19:49:00,57.1,51.3,30.11,North,0,0.0,0.0,81,0.00,,,0.00,WUHU216HW,2013-03-31 02:49:00,
2013-03-30 19:54:00,57.2,51.5,30.11,North,0,0.0,0.0,81,0.00,,,0.00,WUHU216HW,2013-03-31 02:54:00,
2013-03-30 19:59:00,57.1,51.3,30.11,North,0,0.0,0.0,81,0.00,,,0.00,WUHU216HW,2013-03-31 02:59:00,
2013-03-30 20:04:00,57.1,51.3,30.11,North,0,0.0,0.0,81,0.00,,,0.00,WUHU216HW,2013-03-31 03:04:00,
2013-03-30 20:09:00,57.1,51.3,30.11,North,0,0.0,0.0,81,0.00,,,0.00,WUHU216HW,2013-03-31 03:09:00,
2013-03-30 20:15:00,57.1,51.3,30.11,North,0,0.0,0.0,81,0.00,,,0.00,WUHU216HW,2013-03-31 03:15:00,
2013-03-30 20:20:00,57.1,51.3,30.11,North,0,0.0,0.0,81,0.00,,,0.00,WUHU216HW,2013-03-31 03:20:00,
2013-03-30 20:25:00,57.1,51.3,30.12,North,0,0.0,0.0,81,0.00,,,0.00,WUHU216HW,2013-03-31 03:25:00,
2013-03-30 20:30:00,56.9,51.4,30.11,North,0,0.0,0.0,82,0.00,,,0.00,WUHU216HW,2013-03-31 03:30:00,
2013-03-30 20:35:00,56.9,51.4,30.11,North,0,0.0,0.0,82,0.00,,,0.00,WUHU216HW,2013-03-31 03:35:00,
2013-03-30 20:40:00,56.9,51.4,30.11,North,0,0.0,0.0,82,0.00,,,0.00,WUHU216HW,2013-03-31 03:40:00,
2013-03-30 20:45:00,56.9,51.8,30.12,North,0,0.0,0.0,83,0.00,,,0.00,WUHU216HW,2013-03-31 03:45:00,
2013-03-30 20:50:00,56.7,51.6,30.12,North,0,0.0,0.0,83,0.00,,,0.00,WUHU216HW,2013-03-31 03:50:00,
2013-03-30 20:55:00,56.7,51.6,30.12,North,0,0.0,0.0,83,0.00,,,0.00,WUHU216HW,2013-03-31 03:55:00,
2013-03-30 21:00:00,56.5,51.4,30.12,North,0,0.0,0.0,83,0.00,,,0.00,WUHU216HW,2013-03-31 04:00:00,
2013-03-30 21:05:00,56.5,51.4,30.12,North,0,0.0,0.0,83,0.00,,,0.00,WUHU216HW,2013-03-31 04:05:00,
2013-03-30 21:10:00,56.5,51.4,30.12,North,0,0.0,0.0,83,0.00,,,0.00,WUHU216HW,2013-03-31 04:10:00,
2013-03-30 21:15:00,56.3,51.2,30.12,North,0,0.0,0.0,83,0.00,,,0.00,WUHU216HW,2013-03-31 04:15:00,
2013-03-30 21:20:00,56.3,51.2,30.13,North,0,0.0,0.0,83,0.00,,,0.00,WUHU216HW,2013-03-31 04:20:00,
2013-03-30 21:25:00,56.2,51.0,30.13,North,0,0.0,0.0,83,0.00,,,0.00,WUHU216HW,2013-03-31 04:25:00,
2013-03-30 21:30:00,56.2,51.3,30.14,North,0,0.0,0.0,84,0.00,,,0.00,WUHU216HW,2013-03-31 04:30:00,
2013-03-30 21:35:00,56.0,51.1,30.13,North,0,0.0,0.0,84,0.00,,,0.00,WUHU216HW,2013-03-31 04:35:00,
2013-03-30 21:40:00,56.0,51.1,30.13,North,0,0.0,0.0,84,0.00,,,0.00,WUHU216HW,2013-03-31 04:40:00,
2013-03-30 21:45:00,55.8,50.9,30.14,North,0,0.0,0.0,84,0.00,,,0.00,WUHU216HW,2013-03-31 04:45:00,
2013-03-30 21:50:00,55.8,50.9,30.14,North,0,0.0,0.0,84,0.00,,,0.00,WUHU216HW,2013-03-31 04:50:00,
2013-03-30 21:55:00,55.8,51.3,30.12,North,0,0.0,0.0,85,0.00,,,0.00,WUHU216HW,2013-03-31 04:55:00,
2013-03-30 22:00:00,55.8,51.7,30.13,North,0,0.0,0.0,86,0.00,,,0.00,WUHU216HW,2013-03-31 05:00:00,
2013-03-30 22:05:00,55.4,50.9,30.13,North,0,0.0,0.0,85,0.00,,,0.00,WUHU216HW,2013-03-31 05:05:00,
2013-03-30 22:10:00,55.4,51.3,30.13,North,0,0.0,0.0,86,0.00,,,0.00,WUHU216HW,2013-03-31 05:10:00,
2013-03-30 22:15:00,55.4,51.3,30.13,North,0,0.0,0.0,86,0.00,,,0.00,WUHU216HW,2013-03-31 05:15:00,
2013-03-30 22:20:00,55.3,51.1,30.14,North,0,0.0,0.0,86,0.00,,,0.00,WUHU216HW,2013-03-31 05:20:00,
2013-03-30 22:25:00,55.3,51.1,30.13,North,0,0.0,0.0,86,0.00,,,0.00,WUHU216HW,2013-03-31 05:25:00,
2013-03-30 22:30:00,55.1,51.2,30.13,North,0,0.0,0.0,87,0.00,,,0.00,WUHU216HW,2013-03-31 05:30:00,
2013-03-30 22:35:00,55.1,51.0,30.14,North,0,0.0,0.0,86,0.00,,,0.00,WUHU216HW,2013-03-31 05:35:00,
2013-03-30 22:40:00,55.1,51.2,30.14,North,0,0.0,0.0,87,0.00,,,0.00,WUHU216HW,2013-03-31 05:40:00,
2013-03-30 22:45:00,55.1,51.2,30.14,North,0,0.0,0.0,87,0.00,,,0.00,WUHU216HW,2013-03-31 05:45:00,
2013-03-30 22:50:00,54.9,51.0,30.14,North,0,0.0,0.0,87,0.00,,,0.00,WUHU216HW,2013-03-31 05:50:00,
2013-03-30 22:55:00,54.9,51.4,30.15,North,0,0.0,0.0,88,0.00,,,0.00,WUHU216HW,2013-03-31 05:55:00,
2013-03-30 23:00:00,54.9,51.4,30.16,North,0,0.0,0.0,88,0.00,,,0.00,WUHU216HW,2013-03-31 06:00:00,
2013-03-30 23:05:00,54.7,51.2,30.15,North,0,0.0,0.0,88,0.00,,,0.00,WUHU216HW,2013-03-31 06:05:00,
2013-03-30 23:10:00,54.7,51.2,30.13,North,0,0.0,0.0,88,0.00,,,0.00,WUHU216HW,2013-03-31 06:10:00,
2013-03-30 23:15:00,54.5,51.3,30.15,North,0,0.0,0.0,89,0.01,,,0.01,WUHU216HW,2013-03-31 06:15:00,
2013-03-30 23:20:00,54.5,51.3,30.11,North,0,0.0,0.0,89,0.01,,,0.01,WUHU216HW,2013-03-31 06:20:00,
2013-03-30 23:25:00,54.4,51.8,30.14,North,0,0.0,0.0,91,0.02,,,0.01,WUHU216HW,2013-03-31 06:25:00,
2013-03-30 23:30:00,54.4,51.5,30.15,North,0,0.0,0.0,90,0.02,,,0.02,WUHU216HW,2013-03-31 06:30:00,
2013-03-30 23:35:00,54.4,51.5,30.15,North,0,0.0,0.0,90,0.02,,,0.02,WUHU216HW,2013-03-31 06:35:00,
2013-03-30 23:40:00,54.4,51.5,30.15,North,0,0.0,0.0,90,0.02,,,0.02,WUHU216HW,2013-03-31 06:40:00,
2013-03-30 23:45:00,54.4,51.5,30.14,North,0,0.0,0.0,90,0.02,,,0.02,WUHU216HW,2013-03-31 06:45:00,
2013-03-30 23:50:00,54.4,51.2,30.13,North,0,0.0,0.0,89,0.02,,,0.02,WUHU216HW,2013-03-31 06:50:00,
2013-03-30 23:55:00,54.4,51.2,30.13,North,0,0.0,0.0,89,0.02,,,0.02,WUHU216HW,2013-03-31 06:55:00,